createdAt,value
2022-10-05T00:00:53.611Z,10.78
2022-10-05T00:03:22.509Z,10.75
2022-10-05T00:05:49.525Z,10.74
2022-10-05T00:08:19.934Z,10.72
2022-10-05T00:10:46.626Z,10.74
2022-10-05T00:13:17.085Z,10.69
2022-10-05T00:15:45.507Z,10.71
2022-10-05T00:18:21.959Z,10.71
2022-10-05T00:20:49.044Z,10.68
2022-10-05T00:23:24.878Z,10.66
2022-10-05T00:25:51.594Z,10.67
2022-10-05T00:28:36.276Z,10.64
2022-10-05T00:31:02.784Z,10.65
2022-10-05T00:33:29.254Z,10.64
2022-10-05T00:35:55.781Z,10.65
2022-10-05T00:38:22.503Z,10.62
2022-10-05T00:41:14.873Z,10.53
2022-10-05T00:44:00.909Z,10.50
2022-10-05T00:47:06.208Z,10.48
2022-10-05T00:49:48.945Z,10.49
2022-10-05T00:52:24.518Z,10.49
2022-10-05T00:55:06.809Z,10.46
2022-10-05T00:57:49.872Z,10.44
2022-10-05T01:00:20.073Z,10.44
2022-10-05T01:03:19.929Z,10.40
2022-10-05T01:06:22.540Z,10.34
2022-10-05T01:09:32.879Z,10.26
2022-10-05T01:12:17.682Z,10.27
2022-10-05T01:15:11.045Z,10.25
2022-10-05T01:17:41.920Z,10.29
2022-10-05T01:20:45.658Z,10.26
2022-10-05T01:23:46.338Z,10.24
2022-10-05T01:26:30.884Z,10.20
2022-10-05T01:29:06.361Z,10.12
2022-10-05T01:31:45.566Z,10.08
2022-10-05T01:34:35.901Z,10.04
2022-10-05T01:37:23.509Z,10.05
2022-10-05T01:40:15.072Z,10.03
2022-10-05T01:42:55.047Z,10.05
2022-10-05T01:45:43.509Z,10.03
2022-10-05T01:48:22.491Z,10.05
2022-10-05T01:51:17.134Z,10.03
2022-10-05T01:54:13.147Z,10.02
2022-10-05T01:56:50.544Z,9.99
2022-10-05T01:59:48.350Z,9.94
2022-10-05T02:02:18.939Z,9.89
2022-10-05T02:05:01.883Z,9.85
2022-10-05T02:08:00.213Z,9.89
2022-10-05T02:10:42.196Z,9.91
2022-10-05T02:13:18.630Z,9.84
2022-10-05T02:15:49.996Z,9.81
2022-10-05T02:18:22.767Z,9.79
2022-10-05T02:20:53.267Z,9.73
2022-10-05T02:23:23.954Z,9.71
2022-10-05T02:25:54.412Z,9.73
2022-10-05T02:28:34.613Z,9.76
2022-10-05T02:31:15.778Z,9.77
2022-10-05T02:33:42.314Z,9.75
2022-10-05T02:36:16.609Z,9.75
2022-10-05T02:39:01.334Z,9.69
2022-10-05T02:41:39.955Z,9.65
2022-10-05T02:44:26.952Z,9.66
2022-10-05T02:47:09.145Z,9.64
2022-10-05T02:49:51.404Z,9.63
2022-10-05T02:52:40.504Z,9.66
2022-10-05T02:55:16.038Z,9.69
2022-10-05T02:57:56.645Z,9.67
2022-10-05T03:00:25.453Z,9.66
2022-10-05T03:03:15.458Z,9.66
2022-10-05T03:05:51.600Z,9.64
2022-10-05T03:08:25.958Z,9.63
2022-10-05T03:11:00.669Z,9.58
2022-10-05T03:13:52.621Z,9.56
2022-10-05T03:16:31.119Z,9.56
2022-10-05T03:19:03.833Z,9.57
2022-10-05T03:21:56.247Z,9.57
2022-10-05T03:24:47.961Z,9.52
2022-10-05T03:27:23.646Z,9.47
2022-10-05T03:30:19.654Z,9.46
2022-10-05T03:33:09.568Z,9.45
2022-10-05T03:35:48.590Z,9.44
2022-10-05T03:38:30.173Z,9.43
2022-10-05T03:41:08.186Z,9.43
2022-10-05T03:44:04.707Z,9.39
2022-10-05T03:46:50.730Z,9.38
2022-10-05T03:49:35.741Z,9.37
2022-10-05T03:52:10.626Z,9.36
2022-10-05T03:54:43.481Z,9.37
2022-10-05T03:57:17.149Z,9.37
2022-10-05T03:59:57.992Z,9.34
2022-10-05T04:02:58.135Z,9.31
2022-10-05T04:05:34.763Z,9.31
2022-10-05T04:08:33.987Z,9.33
2022-10-05T04:11:06.464Z,9.33
2022-10-05T04:13:47.273Z,9.28
2022-10-05T04:16:34.545Z,9.25
2022-10-05T04:19:33.083Z,9.26
2022-10-05T04:22:23.212Z,9.21
2022-10-05T04:24:55.074Z,9.16
2022-10-05T04:27:27.095Z,9.11
2022-10-05T04:30:17.613Z,9.07
2022-10-05T04:32:54.501Z,9.07
2022-10-05T04:35:56.385Z,9.11
2022-10-05T04:38:50.811Z,9.12
2022-10-05T04:41:35.225Z,9.12
2022-10-05T04:44:04.534Z,9.13
2022-10-05T04:46:33.953Z,9.14
2022-10-05T04:49:45.581Z,9.13
2022-10-05T04:52:30.819Z,9.12
2022-10-05T04:55:16.355Z,9.10
2022-10-05T04:57:45.797Z,9.07
2022-10-05T05:00:23.145Z,9.05
2022-10-05T05:03:10.150Z,9.04
2022-10-05T05:06:12.443Z,9.04
2022-10-05T05:09:06.252Z,8.99
2022-10-05T05:12:04.882Z,8.94
2022-10-05T05:15:01.043Z,8.88
2022-10-05T05:17:47.136Z,8.89
2022-10-05T05:20:45.059Z,8.89
2022-10-05T05:23:37.910Z,8.86
2022-10-05T05:26:23.720Z,8.84
2022-10-05T05:28:58.625Z,8.82
2022-10-05T05:31:37.382Z,8.85
2022-10-05T05:34:31.945Z,8.87
2022-10-05T05:37:07.359Z,8.89
2022-10-05T05:39:46.299Z,8.89
2022-10-05T05:42:47.424Z,8.91
2022-10-05T05:45:33.787Z,8.91
2022-10-05T05:48:12.578Z,8.90
2022-10-05T05:50:55.260Z,8.93
2022-10-05T05:53:31.448Z,8.95
2022-10-05T05:56:26.040Z,8.95
2022-10-05T05:59:21.521Z,8.97
2022-10-05T06:01:52.316Z,9.01
2022-10-05T06:04:25.322Z,9.04
2022-10-05T06:06:54.286Z,9.07
2022-10-05T06:09:33.650Z,9.08
2022-10-05T06:12:06.915Z,9.12
2022-10-05T06:14:58.092Z,9.16
2022-10-05T06:17:47.153Z,9.21
2022-10-05T06:20:26.261Z,9.25
2022-10-05T06:22:58.769Z,9.30
2022-10-05T06:25:49.629Z,9.38
2022-10-05T06:28:16.387Z,9.44
2022-10-05T06:31:06.440Z,9.49
2022-10-05T06:33:44.733Z,9.55
2022-10-05T06:36:30.316Z,9.63
2022-10-05T06:39:32.708Z,9.66
2022-10-05T06:42:35.483Z,9.77
2022-10-05T06:45:07.948Z,9.89
2022-10-05T06:48:04.319Z,9.95
2022-10-05T06:50:46.684Z,10.01
2022-10-05T06:53:36.588Z,10.15
2022-10-05T06:56:17.420Z,10.25
2022-10-05T06:59:08.781Z,10.32
2022-10-05T07:02:04.801Z,10.45
2022-10-05T07:04:53.185Z,10.53
2022-10-05T07:07:37.755Z,10.66
2022-10-05T07:10:07.560Z,10.77
2022-10-05T07:12:52.648Z,10.88
2022-10-05T07:15:26.329Z,10.95
2022-10-05T07:18:11.448Z,10.91
2022-10-05T07:21:17.551Z,10.96
2022-10-05T07:24:04.658Z,10.98
2022-10-05T07:26:37.153Z,11.01
2022-10-05T07:29:17.651Z,11.04
2022-10-05T07:32:02.385Z,11.09
2022-10-05T07:34:36.282Z,11.09
2022-10-05T07:37:46.186Z,11.09
2022-10-05T07:40:23.867Z,11.13
2022-10-05T07:43:12.252Z,11.21
2022-10-05T07:45:45.483Z,11.30
2022-10-05T07:48:35.771Z,11.40
2022-10-05T07:51:25.799Z,11.46
2022-10-05T07:54:07.236Z,11.56
2022-10-05T07:56:40.320Z,11.65
2022-10-05T07:59:16.737Z,11.72
2022-10-05T08:01:52.446Z,11.80
2022-10-05T08:04:25.353Z,11.88
2022-10-05T08:07:02.406Z,11.96
2022-10-05T08:09:47.334Z,12.04
2022-10-05T08:12:29.032Z,12.11
2022-10-05T08:15:07.639Z,12.16
2022-10-05T08:17:54.620Z,12.20
2022-10-05T08:20:56.483Z,12.24
2022-10-05T08:23:36.223Z,12.30
2022-10-05T08:26:45.009Z,12.40
2022-10-05T08:29:30.044Z,12.50
2022-10-05T08:32:01.969Z,12.60
2022-10-05T08:34:38.415Z,12.68
2022-10-05T08:37:13.407Z,12.75
2022-10-05T08:39:48.405Z,12.85
2022-10-05T08:42:23.611Z,12.92
2022-10-05T08:45:14.965Z,12.99
2022-10-05T08:48:11.722Z,13.08
2022-10-05T08:50:56.347Z,13.18
2022-10-05T08:53:58.681Z,13.27
2022-10-05T08:56:28.815Z,13.39
2022-10-05T08:59:18.190Z,13.52
2022-10-05T09:02:05.006Z,13.65
2022-10-05T09:04:37.449Z,13.81
2022-10-05T09:07:17.189Z,13.95
2022-10-05T09:09:49.758Z,14.10
2022-10-05T09:12:31.086Z,14.24
2022-10-05T09:15:24.709Z,14.41
2022-10-05T09:18:14.310Z,14.63
2022-10-05T09:20:55.206Z,14.77
2022-10-05T09:23:38.580Z,14.91
2022-10-05T09:26:29.581Z,15.04
2022-10-05T09:29:27.900Z,15.22
2022-10-05T09:32:36.385Z,15.47
2022-10-05T09:35:27.525Z,15.70
2022-10-05T09:38:31.878Z,15.89
2022-10-05T09:41:07.416Z,16.02
2022-10-05T09:43:59.185Z,16.23
2022-10-05T09:46:31.750Z,16.40
2022-10-05T09:49:20.529Z,16.60
2022-10-05T09:52:02.638Z,16.79
2022-10-05T09:54:50.211Z,16.97
2022-10-05T09:57:35.741Z,17.15
2022-10-05T10:00:30.327Z,17.29
2022-10-05T10:03:35.832Z,17.41
2022-10-05T10:06:33.014Z,17.50
2022-10-05T10:09:18.590Z,17.71
2022-10-05T10:12:22.624Z,17.83
2022-10-05T10:15:13.922Z,18.09
2022-10-05T10:18:05.969Z,18.24
2022-10-05T10:20:57.446Z,18.38
2022-10-05T10:23:45.526Z,18.51
2022-10-05T10:26:36.976Z,18.69
2022-10-05T10:29:24.755Z,18.83
2022-10-05T10:32:14.481Z,19.07
2022-10-05T10:35:04.329Z,19.29
2022-10-05T10:37:59.815Z,19.40
2022-10-05T10:41:09.611Z,19.47
2022-10-05T10:44:02.195Z,19.64
2022-10-05T10:47:01.088Z,19.85
2022-10-05T10:49:46.539Z,19.97
2022-10-05T10:52:15.951Z,20.06
2022-10-05T10:55:01.170Z,20.16
2022-10-05T10:57:31.521Z,20.34
2022-10-05T11:00:19.996Z,20.43
2022-10-05T11:03:23.939Z,20.57
2022-10-05T11:06:11.685Z,20.74
2022-10-05T11:08:54.761Z,20.87
2022-10-05T11:12:05.615Z,21.11
2022-10-05T11:14:54.129Z,21.25
2022-10-05T11:17:33.616Z,21.34
2022-10-05T11:20:04.386Z,21.39
2022-10-05T11:23:19.302Z,21.35
2022-10-05T11:26:04.760Z,21.30
2022-10-05T11:28:47.585Z,21.41
2022-10-05T11:31:32.945Z,21.46
2022-10-05T11:34:37.831Z,21.53
2022-10-05T11:37:22.573Z,21.55
2022-10-05T11:40:38.708Z,21.66
2022-10-05T11:43:26.892Z,21.82
2022-10-05T11:46:20.112Z,21.97
2022-10-05T11:49:26.828Z,22.06
2022-10-05T11:52:35.727Z,22.16
2022-10-05T11:55:26.764Z,22.22
2022-10-05T11:58:26.854Z,22.27
2022-10-05T12:01:05.631Z,22.27
2022-10-05T12:04:11.574Z,22.26
2022-10-05T12:07:09.118Z,22.33
2022-10-05T12:10:17.469Z,22.41
2022-10-05T12:13:08.689Z,22.37
2022-10-05T12:15:57.585Z,22.33
2022-10-05T12:19:10.440Z,22.62
2022-10-05T12:21:47.815Z,22.82
2022-10-05T12:24:26.534Z,22.91
2022-10-05T12:27:09.828Z,22.98
2022-10-05T12:29:39.696Z,23.09
2022-10-05T12:32:21.710Z,23.26
2022-10-05T12:35:01.823Z,23.35
2022-10-05T12:37:47.236Z,23.38
2022-10-05T12:40:40.641Z,23.43
2022-10-05T12:43:37.350Z,23.42
2022-10-05T12:46:25.788Z,23.45
2022-10-05T12:49:20.124Z,23.52
2022-10-05T12:52:01.174Z,23.56
2022-10-05T12:54:59.145Z,23.65
2022-10-05T12:57:54.134Z,23.72
2022-10-05T13:00:23.206Z,23.74
2022-10-05T13:02:57.412Z,23.73
2022-10-05T13:05:29.973Z,23.75
2022-10-05T13:08:12.834Z,23.79
2022-10-05T13:10:58.866Z,23.70
2022-10-05T13:13:34.311Z,23.65
2022-10-05T13:16:28.650Z,23.55
2022-10-05T13:19:19.556Z,23.48
2022-10-05T13:21:46.006Z,23.48
2022-10-05T13:24:20.534Z,23.53
2022-10-05T13:26:53.963Z,23.55
2022-10-05T13:29:38.695Z,23.56
2022-10-05T13:32:24.531Z,23.60
2022-10-05T13:35:00.947Z,23.66
2022-10-05T13:37:46.017Z,23.64
2022-10-05T13:40:43.893Z,23.65
2022-10-05T13:43:29.752Z,23.67
2022-10-05T13:46:07.400Z,23.76
2022-10-05T13:49:10.889Z,23.67
2022-10-05T13:51:55.254Z,23.61
2022-10-05T13:54:51.184Z,23.70
2022-10-05T13:57:45.385Z,23.68
2022-10-05T14:00:26.622Z,23.80
2022-10-05T14:02:56.774Z,23.91
2022-10-05T14:05:29.291Z,23.99
2022-10-05T14:08:02.817Z,24.00
2022-10-05T14:10:40.865Z,23.95
2022-10-05T14:13:21.603Z,23.89
2022-10-05T14:16:08.035Z,23.86
2022-10-05T14:18:37.783Z,23.87
2022-10-05T14:21:19.522Z,23.85
2022-10-05T14:23:47.182Z,23.85
2022-10-05T14:26:26.137Z,23.74
2022-10-05T14:29:00.307Z,23.59
2022-10-05T14:31:31.002Z,23.41
2022-10-05T14:34:00.021Z,23.19
2022-10-05T14:36:36.114Z,22.99
2022-10-05T14:39:05.048Z,22.89
2022-10-05T14:41:37.235Z,22.80
2022-10-05T14:44:28.926Z,22.75
2022-10-05T14:47:02.702Z,22.73
2022-10-05T14:49:33.192Z,22.78
2022-10-05T14:51:59.648Z,22.79
2022-10-05T14:54:42.714Z,22.74
2022-10-05T14:57:32.145Z,22.66
2022-10-05T15:00:10.639Z,22.67
2022-10-05T15:03:16.703Z,22.70
2022-10-05T15:05:55.672Z,22.73
2022-10-05T15:08:48.341Z,22.65
2022-10-05T15:11:34.397Z,22.59
2022-10-05T15:14:06.655Z,22.52
2022-10-05T15:16:38.220Z,22.44
2022-10-05T15:19:12.767Z,22.42
2022-10-05T15:21:55.209Z,22.42
2022-10-05T15:24:31.057Z,22.47
2022-10-05T15:27:01.267Z,22.47
2022-10-05T15:30:09.639Z,22.46
2022-10-05T15:32:48.552Z,22.41
2022-10-05T15:38:50.008Z,22.08
2022-10-05T15:41:23.356Z,21.97
2022-10-05T15:43:58.500Z,21.87
2022-10-05T15:46:49.584Z,21.76
2022-10-05T15:49:19.115Z,21.62
2022-10-05T15:52:02.357Z,21.44
2022-10-05T15:55:07.165Z,21.27
2022-10-05T15:57:58.229Z,21.11
2022-10-05T16:00:29.189Z,20.99
2022-10-05T16:03:04.220Z,20.96
2022-10-05T16:05:59.470Z,20.88
2022-10-05T16:11:46.044Z,20.85
2022-10-05T16:14:28.967Z,20.85
2022-10-05T16:17:08.708Z,20.78
2022-10-05T16:20:09.386Z,20.67
2022-10-05T16:22:59.581Z,20.52
2022-10-05T16:25:42.241Z,20.36
2022-10-05T16:28:34.561Z,20.22
2022-10-05T16:31:18.645Z,20.08
2022-10-05T16:34:03.712Z,19.93
2022-10-05T16:36:53.055Z,19.79
2022-10-05T16:39:35.018Z,19.62
2022-10-05T16:42:42.006Z,19.50
2022-10-05T16:45:14.705Z,19.40
2022-10-05T16:48:05.254Z,19.34
2022-10-05T16:50:31.544Z,19.27
2022-10-05T16:53:04.890Z,19.18
2022-10-05T16:55:42.021Z,19.09
2022-10-05T16:58:17.997Z,19.03
2022-10-05T17:00:51.846Z,19.01
2022-10-05T17:03:34.136Z,18.93
2022-10-05T17:06:30.779Z,18.88
2022-10-05T17:09:30.662Z,18.80
2022-10-05T17:12:29.333Z,18.72
2022-10-05T17:15:32.064Z,18.59
2022-10-05T17:18:04.315Z,18.48
2022-10-05T17:20:43.147Z,18.41
2022-10-05T17:23:31.518Z,18.28
2022-10-05T17:26:03.863Z,18.20
2022-10-05T17:28:41.012Z,18.11
2022-10-05T17:31:21.615Z,18.03
2022-10-05T17:34:06.916Z,17.95
2022-10-05T17:36:47.432Z,17.87
2022-10-05T17:39:20.498Z,17.80
2022-10-05T17:41:47.566Z,17.74
2022-10-05T17:44:15.994Z,17.68
2022-10-05T17:46:45.816Z,17.62
2022-10-05T17:49:41.728Z,17.54
2022-10-05T17:52:44.877Z,17.47
2022-10-05T17:55:34.301Z,17.41
2022-10-05T17:58:23.621Z,17.32
2022-10-05T18:00:59.734Z,17.21
2022-10-05T18:03:37.729Z,17.18
2022-10-05T18:06:25.891Z,17.13
2022-10-05T18:09:14.172Z,17.04
2022-10-05T18:11:42.968Z,17.00
2022-10-05T18:14:19.162Z,16.93
2022-10-05T18:17:13.554Z,16.87
2022-10-05T18:19:39.975Z,16.80
2022-10-05T18:22:27.897Z,16.73
2022-10-05T18:25:05.806Z,16.71
2022-10-05T18:27:38.234Z,16.65
2022-10-05T18:30:23.020Z,16.56
2022-10-05T18:33:02.827Z,16.50
2022-10-05T18:35:54.023Z,16.45
2022-10-05T18:38:21.786Z,16.38
2022-10-05T18:41:02.477Z,16.28
2022-10-05T18:43:46.123Z,16.21
2022-10-05T18:46:21.893Z,16.15
2022-10-05T18:49:12.537Z,16.11
2022-10-05T18:51:51.930Z,16.08
2022-10-05T18:54:50.636Z,16.02
2022-10-05T18:57:19.891Z,15.99
2022-10-05T19:00:09.429Z,15.92
2022-10-05T19:03:00.510Z,15.86
2022-10-05T19:06:19.002Z,15.87
2022-10-05T19:09:29.816Z,15.84
2022-10-05T19:12:46.897Z,15.80
2022-10-05T19:16:05.816Z,15.76
2022-10-05T19:19:37.617Z,15.72
2022-10-05T19:23:24.835Z,15.62
2022-10-05T19:26:42.870Z,15.58
2022-10-05T19:30:05.389Z,15.53
2022-10-05T19:41:07.769Z,15.40
2022-10-05T19:44:16.190Z,15.39
2022-10-05T19:50:31.243Z,15.31
2022-10-05T19:53:28.385Z,15.27
2022-10-05T19:56:22.172Z,15.19
2022-10-05T19:58:52.502Z,15.14
2022-10-05T20:01:42.014Z,15.11
2022-10-05T20:12:20.061Z,15.00
2022-10-05T20:19:05.038Z,14.90
2022-10-05T20:21:50.032Z,14.86
2022-10-05T20:24:26.070Z,14.85
2022-10-05T20:27:02.865Z,14.82
2022-10-05T20:29:31.563Z,14.81
2022-10-05T20:31:58.680Z,14.80
2022-10-05T20:34:25.104Z,14.77
2022-10-05T20:36:52.198Z,14.73
2022-10-05T20:39:21.094Z,14.68
2022-10-05T20:41:47.941Z,14.64
2022-10-05T20:44:14.410Z,14.62
2022-10-05T20:46:45.919Z,14.59
2022-10-05T20:49:12.578Z,14.57
2022-10-05T20:51:40.087Z,14.52
2022-10-05T20:54:07.589Z,14.52
2022-10-05T20:56:34.283Z,14.46
2022-10-05T20:59:00.771Z,14.44
2022-10-05T21:01:28.919Z,14.44
2022-10-05T21:03:55.874Z,14.42
2022-10-05T21:06:22.566Z,14.40
2022-10-05T21:08:51.278Z,14.37
2022-10-05T21:11:17.875Z,14.36
2022-10-05T21:13:45.592Z,14.34
2022-10-05T21:16:13.960Z,14.33
2022-10-05T21:18:40.702Z,14.33
2022-10-05T21:21:07.671Z,14.33
2022-10-05T21:23:34.337Z,14.30
2022-10-05T21:26:01.657Z,14.30
2022-10-05T21:28:28.907Z,14.28
2022-10-05T21:30:55.647Z,14.30
2022-10-05T21:33:22.199Z,14.30
2022-10-05T21:35:48.593Z,14.28
2022-10-05T21:38:15.015Z,14.30
2022-10-05T21:40:43.292Z,14.33
2022-10-05T21:43:09.744Z,14.38
2022-10-05T21:45:36.573Z,14.42
2022-10-05T21:48:03.296Z,14.45
2022-10-05T21:50:29.741Z,14.51
2022-10-05T21:53:06.330Z,14.58
2022-10-05T21:56:04.024Z,14.64
2022-10-05T21:59:27.465Z,14.73
2022-10-05T22:08:58.161Z,15.13
2022-10-05T22:11:24.571Z,15.22
2022-10-05T22:13:52.874Z,15.31
2022-10-05T22:16:23.554Z,15.39
2022-10-05T22:18:50.421Z,15.42
2022-10-05T22:21:17.204Z,15.45
2022-10-05T22:23:45.999Z,15.50
2022-10-05T22:26:16.377Z,15.53
2022-10-05T22:28:44.186Z,15.52
2022-10-05T22:31:12.448Z,15.52
2022-10-05T22:33:39.578Z,15.57
2022-10-05T22:36:07.564Z,15.57
2022-10-05T22:38:34.037Z,15.60
2022-10-05T22:41:00.452Z,15.61
2022-10-05T22:43:29.429Z,15.64
2022-10-05T22:45:56.196Z,15.64
2022-10-05T22:48:22.918Z,15.66
2022-10-05T22:50:49.404Z,15.65
2022-10-05T22:53:15.928Z,15.65
2022-10-05T22:55:42.410Z,15.67
2022-10-05T22:58:08.793Z,15.69
2022-10-05T23:00:56.992Z,15.70
2022-10-05T23:03:21.851Z,15.72
2022-10-05T23:05:48.183Z,15.74
2022-10-05T23:08:15.965Z,15.76
2022-10-05T23:10:42.324Z,15.75
2022-10-05T23:13:08.724Z,15.78
2022-10-05T23:15:35.763Z,15.78
2022-10-05T23:18:02.147Z,15.78
2022-10-05T23:20:28.604Z,15.80
2022-10-05T23:22:54.995Z,15.82
2022-10-05T23:25:22.135Z,15.83
2022-10-05T23:27:48.679Z,15.83
2022-10-05T23:30:15.114Z,15.81
2022-10-05T23:32:43.931Z,15.78
2022-10-05T23:35:12.715Z,15.78
2022-10-05T23:37:43.967Z,15.76
2022-10-05T23:40:13.384Z,15.76
2022-10-05T23:42:40.734Z,15.74
2022-10-05T23:45:08.724Z,15.76
2022-10-05T23:47:35.121Z,15.74
2022-10-05T23:50:02.014Z,15.73
2022-10-05T23:52:28.433Z,15.71
2022-10-05T23:54:55.265Z,15.70
2022-10-05T23:57:21.830Z,15.68
2022-10-05T23:59:50.215Z,15.68
